createdAt,value
2019-02-19T00:01:57.765Z,76.90
2019-02-19T00:04:46.019Z,77.40
2019-02-19T00:07:34.464Z,77.40
2019-02-19T00:10:15.835Z,77.40
2019-02-19T00:15:50.094Z,77.20
2019-02-19T00:18:38.762Z,77.30
2019-02-19T00:21:27.404Z,77.60
2019-02-19T00:24:15.792Z,78.00
2019-02-19T00:27:03.832Z,77.30
2019-02-19T00:29:52.261Z,77.40
2019-02-19T00:32:39.911Z,77.20
2019-02-19T00:35:28.329Z,77.30
2019-02-19T00:38:18.496Z,77.70
2019-02-19T00:40:48.746Z,78.10
2019-02-19T00:43:37.310Z,78.30
2019-02-19T00:49:14.533Z,78.40
2019-02-19T00:52:02.898Z,78.60
2019-02-19T00:55:09.167Z,78.20
2019-02-19T00:57:57.627Z,78.50
2019-02-19T01:00:46.642Z,78.40
2019-02-19T01:03:35.788Z,78.80
2019-02-19T01:06:24.542Z,78.90
2019-02-19T01:09:12.987Z,79.60
2019-02-19T01:12:01.532Z,79.30
2019-02-19T01:14:49.978Z,80.00
2019-02-19T01:17:38.369Z,80.60
2019-02-19T01:20:26.814Z,80.60
2019-02-19T01:23:15.283Z,80.40
2019-02-19T01:26:03.711Z,80.70
2019-02-19T01:28:52.165Z,80.60
2019-02-19T01:31:40.587Z,80.90
2019-02-19T01:34:29.058Z,80.60
2019-02-19T01:37:17.442Z,80.80
2019-02-19T01:40:05.994Z,81.30
2019-02-19T01:42:54.427Z,81.80
2019-02-19T01:46:18.210Z,81.60
2019-02-19T01:49:06.670Z,82.00
2019-02-19T01:54:43.893Z,83.30
2019-02-19T01:57:32.325Z,83.50
2019-02-19T02:03:50.628Z,84.10
2019-02-19T02:06:39.410Z,84.10
2019-02-19T02:09:22.527Z,84.10
2019-02-19T02:12:03.793Z,84.10
2019-02-19T02:14:44.471Z,84.60
2019-02-19T02:20:44.402Z,85.00
2019-02-19T02:26:30.684Z,85.30
2019-02-19T02:29:12.051Z,84.20
2019-02-19T02:31:53.285Z,84.10
2019-02-19T02:34:33.919Z,84.30
2019-02-19T02:37:14.672Z,83.80
2019-02-19T02:39:55.916Z,83.30
2019-02-19T02:42:37.092Z,82.70
2019-02-19T02:45:36.679Z,82.70
2019-02-19T02:48:18.109Z,83.00
2019-02-19T02:54:03.860Z,83.70
2019-02-19T03:00:03.807Z,84.10
2019-02-19T03:02:45.392Z,84.10
2019-02-19T03:05:26.836Z,84.20
2019-02-19T03:08:08.550Z,84.20
2019-02-19T03:10:50.075Z,84.20
2019-02-19T03:13:29.633Z,84.20
2019-02-19T03:16:18.403Z,84.20
2019-02-19T03:19:07.234Z,84.10
2019-02-19T03:21:55.683Z,84.10
2019-02-19T03:24:43.250Z,84.30
2019-02-19T03:27:31.603Z,84.60
2019-02-19T03:30:20.095Z,84.90
2019-02-19T03:33:08.844Z,85.30
2019-02-19T03:35:58.926Z,85.10
2019-02-19T03:38:47.358Z,85.40
2019-02-19T03:41:35.820Z,85.20
2019-02-19T03:44:24.287Z,85.20
2019-02-19T03:47:12.717Z,84.50
2019-02-19T03:50:01.162Z,84.10
2019-02-19T03:52:49.508Z,84.20
2019-02-19T03:55:37.895Z,83.30
2019-02-19T04:01:15.506Z,84.60
2019-02-19T04:04:03.958Z,85.20
2019-02-19T04:06:52.338Z,85.60
2019-02-19T04:09:33.695Z,86.30
2019-02-19T04:12:03.011Z,87.20
2019-02-19T04:14:51.771Z,88.80
2019-02-19T04:20:46.438Z,90.10
2019-02-19T04:23:34.791Z,90.10
2019-02-19T04:26:23.178Z,90.00
2019-02-19T04:29:11.885Z,90.30
2019-02-19T04:32:00.526Z,90.60
2019-02-19T04:34:48.965Z,90.70
2019-02-19T04:40:26.109Z,91.10
2019-02-19T04:43:14.559Z,91.20
2019-02-19T04:46:02.941Z,91.40
2019-02-19T04:48:51.391Z,91.50
2019-02-19T04:51:40.417Z,91.20
2019-02-19T04:54:28.774Z,91.40
2019-02-19T04:57:17.230Z,91.60
2019-02-19T05:00:06.434Z,91.50
2019-02-19T05:02:54.794Z,91.80
2019-02-19T05:05:43.274Z,91.80
2019-02-19T05:11:13.636Z,91.90
2019-02-19T05:13:55.523Z,92.10
2019-02-19T05:16:40.651Z,92.30
2019-02-19T05:19:19.486Z,92.40
2019-02-19T05:22:01.199Z,92.40
2019-02-19T05:28:02.003Z,92.20
2019-02-19T05:30:43.740Z,92.30
2019-02-19T05:33:25.142Z,92.50
2019-02-19T05:39:14.370Z,91.90
2019-02-19T05:41:44.249Z,91.80
2019-02-19T05:44:32.658Z,92.00
2019-02-19T05:47:21.122Z,92.30
2019-02-19T05:52:58.353Z,92.00
2019-02-19T05:55:46.786Z,92.50
2019-02-19T05:58:35.231Z,92.40
2019-02-19T06:01:23.710Z,92.20
2019-02-19T06:04:12.154Z,92.20
2019-02-19T06:07:00.630Z,92.10
2019-02-19T06:13:01.406Z,92.40
2019-02-19T06:15:41.970Z,92.40
2019-02-19T06:18:22.768Z,92.50
2019-02-19T06:21:03.707Z,92.40
2019-02-19T06:23:45.222Z,92.70
2019-02-19T06:29:34.561Z,92.30
2019-02-19T06:38:28.716Z,91.90
2019-02-19T06:44:15.225Z,91.40
2019-02-19T06:46:56.722Z,91.30
2019-02-19T06:52:59.747Z,90.90
2019-02-19T06:55:40.354Z,90.80
2019-02-19T06:58:21.323Z,90.70
2019-02-19T07:01:02.839Z,90.50
2019-02-19T07:03:47.752Z,90.50
2019-02-19T07:06:30.671Z,89.70
2019-02-19T07:12:17.177Z,87.80
2019-02-19T07:14:57.906Z,86.30
2019-02-19T07:17:39.347Z,85.50
2019-02-19T07:20:20.642Z,85.10
2019-02-19T07:25:55.025Z,84.50
2019-02-19T07:35:44.728Z,83.40
2019-02-19T07:38:33.681Z,82.90
2019-02-19T07:41:23.198Z,83.10
2019-02-19T07:44:11.723Z,82.80
2019-02-19T07:47:00.536Z,82.20
2019-02-19T07:49:49.025Z,81.70
2019-02-19T07:52:37.498Z,81.70
2019-02-19T07:59:09.987Z,81.20
2019-02-19T08:01:39.354Z,80.10
2019-02-19T08:04:27.386Z,80.60
2019-02-19T08:07:15.814Z,80.50
2019-02-19T08:13:04.905Z,78.20
2019-02-19T08:15:45.632Z,78.60
2019-02-19T08:18:26.524Z,77.80
2019-02-19T08:21:07.938Z,77.80
2019-02-19T08:23:48.572Z,77.20
2019-02-19T08:26:48.871Z,77.20
2019-02-19T08:29:30.225Z,76.40
2019-02-19T08:32:11.809Z,76.20
2019-02-19T08:34:53.191Z,76.10
2019-02-19T08:37:33.746Z,75.00
2019-02-19T08:40:13.537Z,73.90
2019-02-19T08:43:01.912Z,72.50
2019-02-19T08:45:50.635Z,71.80
2019-02-19T08:48:39.150Z,71.40
2019-02-19T08:51:28.230Z,70.40
2019-02-19T08:54:16.644Z,70.00
2019-02-19T08:57:05.075Z,69.10
2019-02-19T08:59:53.780Z,69.20
2019-02-19T09:05:53.921Z,68.60
2019-02-19T09:08:42.522Z,66.00
2019-02-19T09:11:23.707Z,65.80
2019-02-19T09:14:04.867Z,65.60
2019-02-19T09:16:46.353Z,65.10
2019-02-19T09:19:27.035Z,65.50
2019-02-19T09:22:07.878Z,65.30
2019-02-19T09:24:48.495Z,64.10
2019-02-19T09:27:29.259Z,62.90
2019-02-19T09:30:10.270Z,62.40
2019-02-19T09:32:51.420Z,61.20
2019-02-19T09:35:32.156Z,60.70
2019-02-19T09:41:20.070Z,59.90
2019-02-19T09:44:08.691Z,59.70
2019-02-19T09:46:57.066Z,58.80
2019-02-19T09:49:45.666Z,58.90
2019-02-19T09:52:34.817Z,59.10
2019-02-19T09:55:23.291Z,58.40
2019-02-19T09:58:12.197Z,59.10
2019-02-19T10:01:00.646Z,58.50
2019-02-19T10:03:49.083Z,58.30
2019-02-19T10:06:37.564Z,59.00
2019-02-19T10:09:18.454Z,58.30
2019-02-19T10:15:18.881Z,58.80
2019-02-19T10:21:06.758Z,59.30
2019-02-19T10:26:44.012Z,59.30
2019-02-19T10:29:32.394Z,61.50
2019-02-19T10:32:20.854Z,61.60
2019-02-19T10:35:09.725Z,61.40
2019-02-19T10:40:46.959Z,61.70
2019-02-19T10:46:23.015Z,60.90
2019-02-19T10:49:11.439Z,61.00
2019-02-19T10:51:59.833Z,59.90
2019-02-19T10:55:05.790Z,59.30
2019-02-19T10:57:54.149Z,58.90
2019-02-19T11:01:00.058Z,58.60
2019-02-19T11:03:48.528Z,58.50
2019-02-19T11:06:39.006Z,59.00
2019-02-19T11:09:20.527Z,59.20
2019-02-19T11:12:01.444Z,59.10
2019-02-19T11:14:42.903Z,59.30
2019-02-19T11:20:29.644Z,60.20
2019-02-19T11:23:11.151Z,60.30
2019-02-19T11:28:57.200Z,60.30
2019-02-19T11:34:42.471Z,61.40
2019-02-19T11:37:24.008Z,61.40
2019-02-19T11:40:24.294Z,61.80
2019-02-19T11:43:05.798Z,61.80
2019-02-19T11:45:46.502Z,61.70
2019-02-19T11:48:46.119Z,62.10
2019-02-19T11:51:16.298Z,62.40
2019-02-19T11:54:04.739Z,63.00
2019-02-19T11:56:53.211Z,63.70
2019-02-19T11:59:42.264Z,64.40
2019-02-19T12:02:33.212Z,65.70
2019-02-19T12:05:22.243Z,65.80
2019-02-19T12:08:09.202Z,67.10
2019-02-19T12:10:51.018Z,67.50
2019-02-19T12:16:52.451Z,68.20
2019-02-19T12:19:33.475Z,68.20
2019-02-19T12:28:29.709Z,69.00
2019-02-19T12:34:15.775Z,68.70
2019-02-19T12:40:01.719Z,68.50
2019-02-19T12:42:42.646Z,68.30
2019-02-19T12:45:24.494Z,68.10
2019-02-19T12:48:05.235Z,68.60
2019-02-19T12:50:34.538Z,70.20
2019-02-19T12:53:23.284Z,70.30
2019-02-19T12:56:48.492Z,70.60
2019-02-19T12:59:36.924Z,70.60
2019-02-19T13:02:25.803Z,71.10
2019-02-19T13:08:20.728Z,71.90
2019-02-19T13:10:50.144Z,72.40
2019-02-19T13:13:38.607Z,72.70
2019-02-19T13:16:44.516Z,72.60
2019-02-19T13:23:21.938Z,74.20
2019-02-19T13:25:51.269Z,74.30
2019-02-19T13:28:39.711Z,74.30
2019-02-19T13:31:28.135Z,74.30
2019-02-19T13:34:53.098Z,74.50
2019-02-19T13:37:40.751Z,74.40
2019-02-19T13:40:29.241Z,73.70
2019-02-19T13:42:58.998Z,72.00
2019-02-19T13:46:04.994Z,71.50
2019-02-19T13:52:43.892Z,72.70
2019-02-19T13:56:07.389Z,72.00
2019-02-19T13:59:13.562Z,70.70
2019-02-19T14:04:50.738Z,70.40
2019-02-19T14:17:12.155Z,69.40
2019-02-19T14:20:00.923Z,69.30
2019-02-19T14:23:09.943Z,69.10
2019-02-19T14:32:34.194Z,68.60
2019-02-19T14:44:14.945Z,69.30
2019-02-19T14:54:37.326Z,71.30
2019-02-19T14:57:36.002Z,71.50
2019-02-19T15:10:15.338Z,73.50
2019-02-19T15:13:15.326Z,73.30
2019-02-19T15:16:05.756Z,73.70
2019-02-19T15:22:08.738Z,74.10
2019-02-19T15:25:17.316Z,74.20
2019-02-19T15:28:25.845Z,74.20
2019-02-19T15:31:34.298Z,74.60
2019-02-19T15:34:41.674Z,74.70
2019-02-19T15:41:13.798Z,75.50
2019-02-19T15:44:21.195Z,75.60
2019-02-19T15:50:15.675Z,75.80
2019-02-19T15:53:23.052Z,76.40
2019-02-19T15:56:30.735Z,76.30
2019-02-19T15:59:26.768Z,76.40
2019-02-19T16:05:36.411Z,76.90
2019-02-19T16:11:25.100Z,77.10
2019-02-19T16:14:25.228Z,77.10
2019-02-19T16:17:31.443Z,77.70
2019-02-19T16:23:25.388Z,78.20
2019-02-19T16:29:44.692Z,78.90
2019-02-19T16:32:52.272Z,79.40
2019-02-19T16:35:40.401Z,79.90
2019-02-19T16:41:17.866Z,80.70
2019-02-19T16:47:25.420Z,81.60
2019-02-19T16:50:13.872Z,81.50
2019-02-19T16:56:17.927Z,81.90
2019-02-19T17:02:50.429Z,83.20
2019-02-19T17:05:38.118Z,83.60
2019-02-19T17:12:03.523Z,84.50
2019-02-19T17:14:51.895Z,84.80
2019-02-19T17:21:09.071Z,85.70
2019-02-19T17:31:02.204Z,87.00
2019-02-19T17:34:09.852Z,86.70
2019-02-19T17:40:09.595Z,88.20
2019-02-19T17:43:03.787Z,88.30
2019-02-19T17:46:11.145Z,88.20
2019-02-19T17:49:18.539Z,89.60
2019-02-19T17:55:37.892Z,90.70
2019-02-19T17:58:45.299Z,91.00
2019-02-19T18:01:52.726Z,91.20
2019-02-19T18:05:00.429Z,91.40
2019-02-19T18:08:25.793Z,91.70
2019-02-19T18:11:26.324Z,92.00
2019-02-19T18:14:21.014Z,91.80
2019-02-19T18:17:20.597Z,92.20
2019-02-19T18:20:02.018Z,92.20
2019-02-19T18:22:42.780Z,92.20
2019-02-19T18:25:23.563Z,92.20
2019-02-19T18:28:05.143Z,92.30
2019-02-19T18:30:46.812Z,92.70
2019-02-19T18:33:28.230Z,92.50
2019-02-19T18:39:31.618Z,93.00
2019-02-19T18:42:12.945Z,93.20
2019-02-19T18:44:53.839Z,93.20
2019-02-19T18:47:35.311Z,93.60
2019-02-19T18:50:15.882Z,93.90
2019-02-19T18:52:56.670Z,94.20
2019-02-19T18:55:38.020Z,94.50
2019-02-19T18:58:19.561Z,94.80
2019-02-19T19:04:19.825Z,95.50
2019-02-19T19:07:01.274Z,96.10
2019-02-19T19:09:42.758Z,96.00
2019-02-19T19:12:42.878Z,96.00
2019-02-19T19:15:24.341Z,96.10
2019-02-19T19:18:05.757Z,96.20
2019-02-19T19:20:47.126Z,96.70
2019-02-19T19:23:28.705Z,96.60
2019-02-19T19:29:28.706Z,97.00
2019-02-19T19:32:10.519Z,97.20
2019-02-19T19:34:51.492Z,97.50
2019-02-19T19:37:32.565Z,97.30
2019-02-19T19:43:22.162Z,97.30
2019-02-19T19:46:03.616Z,97.30
2019-02-19T19:48:45.973Z,97.70
2019-02-19T19:51:27.302Z,98.00
2019-02-19T19:54:08.466Z,98.00
2019-02-19T19:56:49.804Z,98.00
2019-02-19T20:05:44.927Z,98.20
2019-02-19T20:17:48.202Z,98.40
2019-02-19T20:20:29.608Z,98.60
2019-02-19T20:23:11.471Z,98.50
2019-02-19T20:25:52.344Z,98.80
2019-02-19T20:35:00.994Z,98.70
2019-02-19T20:38:01.487Z,98.70
2019-02-19T20:43:46.941Z,98.70
2019-02-19T20:46:28.495Z,98.90
2019-02-19T20:49:09.942Z,98.90
2019-02-19T20:51:50.711Z,99.10
2019-02-19T20:54:32.462Z,99.30
2019-02-19T20:57:13.427Z,98.80
2019-02-19T21:00:13.929Z,98.90
2019-02-19T21:02:55.320Z,98.90
2019-02-19T21:08:44.468Z,98.60
2019-02-19T21:11:27.546Z,98.00
2019-02-19T21:17:27.198Z,98.00
2019-02-19T21:20:07.849Z,97.90
2019-02-19T21:22:49.223Z,97.90
2019-02-19T21:25:31.263Z,97.90
2019-02-19T21:28:12.577Z,97.90
2019-02-19T21:34:02.092Z,97.90
2019-02-19T21:39:48.669Z,97.80
2019-02-19T21:42:49.381Z,98.20
2019-02-19T21:45:30.722Z,98.40
2019-02-19T21:48:11.480Z,98.60
2019-02-19T21:50:53.028Z,98.80
2019-02-19T21:53:34.657Z,99.00
2019-02-19T21:56:16.147Z,99.00
2019-02-19T22:02:16.555Z,99.20
2019-02-19T22:04:58.202Z,99.10
2019-02-19T22:10:48.046Z,99.70
2019-02-19T22:13:29.602Z,99.70
2019-02-19T22:16:10.891Z,99.30
2019-02-19T22:18:51.890Z,99.10
2019-02-19T22:21:52.080Z,99.30
2019-02-19T22:24:39.720Z,99.60
2019-02-19T22:27:21.424Z,99.70
2019-02-19T22:30:00.951Z,99.80
2019-02-19T22:32:49.388Z,99.80
2019-02-19T22:35:38.200Z,99.60
2019-02-19T22:38:26.870Z,99.80
2019-02-19T22:41:15.326Z,99.90
2019-02-19T22:44:21.283Z,99.70
2019-02-19T22:47:09.674Z,99.80
2019-02-19T22:49:59.343Z,99.60
2019-02-19T22:52:47.818Z,99.90
2019-02-19T22:55:55.177Z,99.80
2019-02-19T22:59:01.379Z,99.90
2019-02-19T23:04:49.874Z,99.90
2019-02-19T23:07:38.243Z,99.90
2019-02-19T23:10:19.304Z,99.90
2019-02-19T23:12:59.864Z,99.90
2019-02-19T23:15:59.550Z,99.90
2019-02-19T23:18:40.830Z,99.90
2019-02-19T23:21:22.302Z,99.90
2019-02-19T23:24:03.031Z,99.90
2019-02-19T23:29:51.362Z,99.90
2019-02-19T23:32:40.198Z,99.90
2019-02-19T23:39:11.674Z,99.90
2019-02-19T23:42:00.115Z,99.90
2019-02-19T23:44:48.076Z,99.90
2019-02-19T23:47:38.032Z,99.90
2019-02-19T23:50:09.057Z,99.90
2019-02-19T23:52:57.492Z,99.90
2019-02-19T23:55:27.098Z,99.90
2019-02-19T23:58:15.804Z,99.90
